Time;durP1;ratioP1;P1;durP2;ratioP2;P2;SDS_P1;SDS_P2;PMS_P1;PMS_P2;Temp;Humidity;BMP_temperature;BMP_pressure;BME280_temperature;BME280_humidity;BME280_pressure;Samples;Min_cycle;Max_cycle;Signal;HPM_P1;HPM_P2
2023/05/08 00:00:11;;;;;;;10.13;8.33;;;7.10;99.90;;;;;;5058293;28;20498;-78
2023/05/08 00:02:40;;;;;;;11.53;9.33;;;7.10;99.90;;;;;;5065662;28;20545;-79
2023/05/08 00:05:07;;;;;;;12.73;10.27;;;7.00;99.90;;;;;;5056203;28;20460;-79
2023/05/08 00:07:36;;;;;;;13.17;9.60;;;7.00;99.90;;;;;;5062802;28;20502;-79
2023/05/08 00:10:03;;;;;;;12.40;8.93;;;7.00;99.90;;;;;;5056449;28;20441;-79
2023/05/08 00:12:30;;;;;;;9.80;8.60;;;7.00;99.90;;;;;;5055065;28;20537;-78
2023/05/08 00:14:57;;;;;;;12.30;10.50;;;7.00;99.90;;;;;;5062157;28;20502;-83
2023/05/08 00:17:24;;;;;;;11.13;9.20;;;7.00;99.90;;;;;;5071664;28;20444;-79
2023/05/08 00:19:51;;;;;;;14.73;11.80;;;7.00;99.90;;;;;;5061586;28;20515;-78
2023/05/08 00:22:19;;;;;;;10.33;9.03;;;6.90;99.90;;;;;;5074810;28;20474;-77
2023/05/08 00:24:47;;;;;;;16.83;11.33;;;6.90;99.90;;;;;;5064211;28;20476;-79
2023/05/08 00:27:14;;;;;;;12.30;9.63;;;6.90;99.90;;;;;;5062123;28;20445;-79
2023/05/08 00:29:41;;;;;;;11.10;9.63;;;6.90;99.90;;;;;;5066331;28;20529;-79
2023/05/08 00:32:09;;;;;;;16.30;11.20;;;6.90;99.90;;;;;;5056938;28;20491;-79
2023/05/08 00:34:36;;;;;;;10.50;9.40;;;6.90;99.90;;;;;;5066618;28;20440;-79
2023/05/08 00:37:03;;;;;;;14.20;10.87;;;6.90;99.90;;;;;;5061859;28;20444;-78
2023/05/08 00:39:30;;;;;;;14.50;10.60;;;6.90;99.90;;;;;;5059706;28;20872;-79
2023/05/08 00:41:59;;;;;;;15.17;11.30;;;6.90;99.90;;;;;;5057743;28;20502;-79
2023/05/08 00:44:26;;;;;;;11.50;9.73;;;6.80;99.90;;;;;;5060426;28;20506;-79
2023/05/08 00:46:53;;;;;;;14.17;11.17;;;6.90;99.90;;;;;;5061911;28;20491;-78
2023/05/08 00:49:20;;;;;;;12.93;9.90;;;6.80;99.90;;;;;;5060411;28;20476;-78
2023/05/08 00:51:48;;;;;;;11.60;9.70;;;6.80;99.90;;;;;;5064633;28;20484;-78
2023/05/08 00:54:16;;;;;;;11.90;10.60;;;6.80;99.90;;;;;;5064380;28;20449;-79
2023/05/08 00:56:44;;;;;;;13.40;10.83;;;6.80;99.90;;;;;;5064351;28;20558;-82
2023/05/08 00:59:13;;;;;;;10.50;8.80;;;6.70;99.90;;;;;;5065006;28;20479;-81
2023/05/08 01:01:41;;;;;;;10.33;8.90;;;6.70;99.90;;;;;;5063112;28;20463;-78
2023/05/08 01:04:08;;;;;;;11.50;9.67;;;6.70;99.90;;;;;;5051771;28;20857;-80
2023/05/08 01:06:36;;;;;;;13.53;10.07;;;6.70;99.90;;;;;;5066411;28;20522;-81
2023/05/08 01:09:03;;;;;;;11.40;9.43;;;6.80;99.90;;;;;;5063735;28;20437;-79
2023/05/08 01:11:37;;;;;;;13.30;11.43;;;6.70;99.90;;;;;;5057167;28;20533;-79
2023/05/08 01:14:12;;;;;;;13.77;11.43;;;6.70;99.90;;;;;;5061573;28;21193;-80
2023/05/08 01:16:45;;;;;;;12.47;10.17;;;6.70;99.90;;;;;;5057096;28;20451;-79
2023/05/08 01:19:42;;;;;;;11.17;9.80;;;6.70;99.90;;;;;;5063547;28;20460;-80
2023/05/08 01:22:18;;;;;;;15.73;10.83;;;6.70;99.90;;;;;;5054549;28;20449;-79
2023/05/08 01:25:16;;;;;;;13.47;11.70;;;6.70;99.90;;;;;;5066275;28;20436;-80
2023/05/08 01:28:13;;;;;;;10.97;9.87;;;6.80;99.90;;;;;;5054923;28;20460;-82
2023/05/08 01:30:59;;;;;;;11.53;10.30;;;6.90;99.90;;;;;;5061266;28;20962;-79
2023/05/08 01:33:35;;;;;;;11.97;10.50;;;7.00;99.90;;;;;;5060276;28;20456;-78
2023/05/08 01:36:17;;;;;;;13.43;10.47;;;7.10;99.90;;;;;;5054583;28;20480;-78
2023/05/08 01:38:53;;;;;;;10.60;9.60;;;7.20;99.90;;;;;;5063267;28;20468;-78
2023/05/08 01:41:26;;;;;;;10.83;8.60;;;7.20;99.90;;;;;;5058114;28;20541;-79
2023/05/08 01:44:02;;;;;;;12.87;10.23;;;7.20;99.90;;;;;;5067758;28;20440;-79
2023/05/08 01:46:33;;;;;;;13.37;9.80;;;7.30;99.90;;;;;;5058108;28;20478;-79
2023/05/08 01:49:08;;;;;;;14.53;10.00;;;7.40;99.90;;;;;;5062053;28;20487;-80
2023/05/08 01:51:40;;;;;;;11.73;9.97;;;7.40;99.90;;;;;;5064717;28;20479;-79
2023/05/08 01:54:14;;;;;;;12.83;10.83;;;7.40;99.90;;;;;;5068167;28;20509;-78
2023/05/08 01:56:43;;;;;;;11.23;9.23;;;7.40;99.90;;;;;;5066367;28;20440;-77
2023/05/08 01:59:15;;;;;;;9.47;8.27;;;7.40;99.90;;;;;;5062075;28;20486;-79
2023/05/08 02:01:46;;;;;;;11.33;10.10;;;7.40;99.90;;;;;;5060251;28;20473;-79
2023/05/08 02:04:16;;;;;;;12.23;9.93;;;7.40;99.90;;;;;;5058885;28;20921;-78
2023/05/08 02:06:43;;;;;;;11.40;9.40;;;7.40;99.90;;;;;;5061250;28;21108;-80
2023/05/08 02:09:11;;;;;;;11.40;10.20;;;7.40;99.90;;;;;;5063374;28;20506;-79
2023/05/08 02:11:42;;;;;;;10.77;9.53;;;7.50;99.90;;;;;;5057264;28;20518;-78
2023/05/08 02:14:10;;;;;;;11.23;10.07;;;7.40;99.90;;;;;;5059632;28;20510;-79
2023/05/08 02:16:38;;;;;;;10.97;9.30;;;7.40;99.90;;;;;;5061117;28;20498;-80
2023/05/08 02:19:07;;;;;;;9.77;8.70;;;7.40;99.90;;;;;;5058227;28;20519;-78
2023/05/08 02:21:37;;;;;;;9.00;8.10;;;7.40;99.90;;;;;;5069173;28;20583;-78
2023/05/08 02:24:05;;;;;;;11.93;9.60;;;7.40;99.90;;;;;;5062896;28;20455;-80
2023/05/08 02:26:34;;;;;;;9.80;8.80;;;7.40;99.90;;;;;;5056379;28;20501;-80
2023/05/08 02:29:03;;;;;;;11.87;10.53;;;7.40;99.90;;;;;;5067204;28;20456;-79
2023/05/08 02:31:30;;;;;;;10.93;9.23;;;7.40;99.90;;;;;;5066048;28;21053;-83
2023/05/08 02:33:59;;;;;;;10.03;9.03;;;7.40;99.90;;;;;;5066062;28;20547;-80
2023/05/08 02:36:28;;;;;;;13.37;10.60;;;7.50;99.90;;;;;;5054549;28;20480;-79
2023/05/08 02:38:59;;;;;;;11.37;10.17;;;7.40;99.90;;;;;;5068240;28;20437;-81
2023/05/08 02:41:30;;;;;;;10.80;9.00;;;7.40;99.90;;;;;;5060739;28;20464;-79
2023/05/08 02:43:58;;;;;;;12.40;10.50;;;7.40;99.90;;;;;;5068946;28;20433;-79
2023/05/08 02:46:35;;;;;;;10.70;9.63;;;7.40;99.90;;;;;;5066129;28;20437;-81
2023/05/08 02:49:08;;;;;;;10.80;8.70;;;7.40;99.90;;;;;;5061969;28;20505;-77
2023/05/08 02:51:43;;;;;;;12.10;10.00;;;7.40;99.90;;;;;;5063154;28;20483;-78
2023/05/08 02:54:19;;;;;;;10.17;9.13;;;7.40;99.90;;;;;;5064048;28;20935;-80
2023/05/08 02:56:55;;;;;;;10.43;9.33;;;7.40;99.90;;;;;;5063809;28;20448;-79
2023/05/08 02:59:28;;;;;;;10.40;8.63;;;7.40;99.90;;;;;;5058304;28;20939;-79
2023/05/08 03:02:04;;;;;;;10.50;9.20;;;7.40;99.90;;;;;;5059580;28;20460;-80
2023/05/08 03:04:38;;;;;;;10.83;9.10;;;7.40;99.90;;;;;;5058863;28;20510;-81
2023/05/08 03:07:06;;;;;;;10.70;9.60;;;7.30;99.90;;;;;;5054653;28;20457;-78
2023/05/08 03:09:41;;;;;;;11.03;9.80;;;7.40;99.90;;;;;;5055361;28;20456;-79
2023/05/08 03:12:14;;;;;;;11.90;10.80;;;7.30;99.90;;;;;;5062410;28;20499;-80
2023/05/08 03:14:45;;;;;;;13.50;10.37;;;7.30;99.90;;;;;;5065605;28;20449;-80
2023/05/08 03:17:16;;;;;;;10.53;9.43;;;7.30;99.90;;;;;;5060491;28;20461;-77
2023/05/08 03:19:47;;;;;;;10.43;9.33;;;7.30;99.90;;;;;;5063268;28;20919;-82
2023/05/08 03:22:16;;;;;;;12.43;9.50;;;7.30;99.90;;;;;;5065149;28;20444;-79
2023/05/08 03:24:47;;;;;;;17.93;11.63;;;7.40;99.90;;;;;;5073739;28;20460;-79
2023/05/08 03:27:15;;;;;;;16.10;11.33;;;7.40;99.90;;;;;;5074651;28;20509;-79
2023/05/08 03:29:45;;;;;;;14.27;10.93;;;7.40;99.90;;;;;;5075347;28;20471;-78
2023/05/08 03:32:13;;;;;;;13.33;11.93;;;7.40;99.90;;;;;;5071481;28;20475;-79
2023/05/08 03:34:41;;;;;;;12.00;10.10;;;7.40;99.90;;;;;;5055413;28;20490;-79
2023/05/08 03:37:08;;;;;;;13.73;11.13;;;7.40;99.90;;;;;;5067844;28;20547;-79
2023/05/08 03:39:36;;;;;;;14.10;11.00;;;7.40;99.90;;;;;;5067851;28;20506;-79
2023/05/08 03:42:04;;;;;;;12.83;10.03;;;7.40;99.90;;;;;;5068658;28;20444;-79
2023/05/08 03:44:33;;;;;;;16.60;13.07;;;7.40;99.90;;;;;;5061968;28;21144;-78
2023/05/08 03:47:02;;;;;;;13.80;10.00;;;7.40;99.90;;;;;;5061988;28;20681;-78
2023/05/08 03:49:31;;;;;;;14.80;12.30;;;7.30;99.90;;;;;;5060065;28;20492;-79
2023/05/08 03:51:58;;;;;;;13.53;11.27;;;7.30;99.90;;;;;;5063881;28;20533;-79
2023/05/08 03:54:27;;;;;;;11.20;10.00;;;7.40;99.90;;;;;;5064267;28;20440;-79
2023/05/08 03:56:54;;;;;;;16.57;11.07;;;7.40;99.90;;;;;;5064593;28;20467;-82
2023/05/08 03:59:29;;;;;;;13.73;10.83;;;7.40;99.90;;;;;;5067538;28;20813;-77
2023/05/08 04:02:09;;;;;;;11.70;10.10;;;7.50;99.90;;;;;;5059087;28;20520;-79
2023/05/08 04:04:40;;;;;;;11.43;9.90;;;7.50;99.90;;;;;;5059164;28;20457;-79
2023/05/08 04:07:12;;;;;;;11.13;10.03;;;7.50;99.90;;;;;;5064185;28;20448;-79
2023/05/08 04:09:44;;;;;;;13.00;9.37;;;7.50;99.90;;;;;;5062836;28;20493;-79
2023/05/08 04:12:17;;;;;;;16.10;11.60;;;7.60;99.90;;;;;;5057267;28;20534;-80
2023/05/08 04:14:56;;;;;;;13.37;10.40;;;7.60;99.90;;;;;;5061424;28;20541;-79
2023/05/08 04:17:34;;;;;;;12.23;9.80;;;7.60;99.90;;;;;;5060562;28;20460;-80
2023/05/08 04:20:04;;;;;;;12.20;10.63;;;7.50;99.90;;;;;;5062582;28;20624;-80
2023/05/08 04:22:33;;;;;;;12.17;10.97;;;7.50;99.90;;;;;;5063466;28;20534;-80
2023/05/08 04:25:04;;;;;;;12.57;11.00;;;7.50;99.90;;;;;;5066269;28;20553;-80
2023/05/08 04:27:34;;;;;;;13.60;11.20;;;7.50;99.90;;;;;;5068072;28;20523;-83
2023/05/08 04:30:03;;;;;;;15.30;11.83;;;7.50;99.90;;;;;;5058061;28;20492;-83
2023/05/08 04:32:33;;;;;;;14.17;11.63;;;7.50;99.90;;;;;;5054095;28;20484;-81
2023/05/08 04:35:00;;;;;;;13.50;12.10;;;7.40;99.90;;;;;;5061828;28;20467;-80
2023/05/08 04:37:30;;;;;;;13.87;12.33;;;7.40;99.90;;;;;;5054329;28;20506;-79
2023/05/08 04:39:57;;;;;;;17.17;11.90;;;7.40;99.90;;;;;;5060334;28;20464;-80
2023/05/08 04:42:25;;;;;;;12.30;11.10;;;7.40;99.90;;;;;;5060124;28;20440;-83
2023/05/08 04:44:52;;;;;;;14.37;10.83;;;7.50;99.90;;;;;;5059318;28;20858;-80
2023/05/08 04:47:21;;;;;;;14.07;12.50;;;7.50;99.90;;;;;;5059969;28;20997;-79
2023/05/08 04:49:48;;;;;;;17.27;13.37;;;7.50;99.90;;;;;;5062270;28;20472;-81
2023/05/08 04:52:15;;;;;;;15.53;12.33;;;7.50;99.90;;;;;;5062925;28;20475;-78
2023/05/08 04:54:41;;;;;;;15.23;12.07;;;7.40;99.90;;;;;;5060913;28;20465;-82
2023/05/08 04:57:08;;;;;;;15.87;12.13;;;7.40;99.90;;;;;;5062176;28;20445;-81
2023/05/08 04:59:35;;;;;;;16.67;14.00;;;7.40;99.90;;;;;;5050683;28;20542;-79
2023/05/08 05:02:04;;;;;;;16.13;12.97;;;7.50;99.90;;;;;;5060816;28;20456;-78
2023/05/08 05:04:34;;;;;;;17.27;14.27;;;7.60;99.90;;;;;;5066587;28;20448;-78
2023/05/08 05:07:01;;;;;;;17.20;13.33;;;7.60;99.90;;;;;;5064016;28;20467;-83
2023/05/08 05:09:28;;;;;;;16.50;12.20;;;7.60;99.90;;;;;;5065774;28;20464;-78
2023/05/08 05:11:55;;;;;;;14.47;12.97;;;7.60;99.90;;;;;;5065338;28;20882;-82
2023/05/08 05:14:22;;;;;;;16.70;14.57;;;7.70;99.90;;;;;;5060835;28;20982;-81
2023/05/08 05:16:49;;;;;;;15.97;13.60;;;7.70;99.90;;;;;;5065952;28;20467;-78
2023/05/08 05:19:17;;;;;;;17.93;13.87;;;7.60;99.90;;;;;;5061216;28;20437;-82
2023/05/08 05:21:46;;;;;;;16.23;13.80;;;7.60;99.90;;;;;;5062095;28;20570;-82
2023/05/08 05:24:13;;;;;;;18.20;14.70;;;7.60;99.90;;;;;;5066491;28;21082;-77
2023/05/08 05:26:41;;;;;;;18.50;15.10;;;7.70;99.90;;;;;;5066009;28;20456;-78
2023/05/08 05:29:08;;;;;;;18.00;15.00;;;7.70;99.90;;;;;;5061712;28;20452;-80
2023/05/08 05:31:36;;;;;;;16.07;14.40;;;7.60;99.90;;;;;;5062258;28;20471;-78
2023/05/08 05:34:03;;;;;;;16.33;12.50;;;7.70;99.90;;;;;;5062090;28;20487;-78
2023/05/08 05:36:30;;;;;;;16.37;12.87;;;7.70;99.90;;;;;;5067599;28;20461;-78
2023/05/08 05:38:58;;;;;;;22.33;13.33;;;7.60;99.90;;;;;;5063556;28;20525;-81
2023/05/08 05:41:25;;;;;;;19.10;13.73;;;7.80;99.90;;;;;;5061000;28;20974;-82
2023/05/08 05:43:52;;;;;;;17.10;14.43;;;7.80;99.90;;;;;;5064486;28;20444;-79
2023/05/08 05:46:19;;;;;;;16.10;13.93;;;7.90;99.90;;;;;;5052503;28;20461;-78
2023/05/08 05:48:46;;;;;;;18.13;14.33;;;8.00;99.90;;;;;;5064083;28;21036;-77
2023/05/08 05:51:13;;;;;;;17.10;13.87;;;8.10;99.90;;;;;;5056605;28;20515;-78
2023/05/08 05:53:40;;;;;;;17.43;13.10;;;8.20;99.90;;;;;;5057103;28;20893;-79
2023/05/08 05:56:09;;;;;;;19.03;15.37;;;8.20;99.90;;;;;;5064202;28;20509;-77
2023/05/08 05:58:39;;;;;;;18.17;14.27;;;8.30;99.90;;;;;;5064395;28;20494;-78
2023/05/08 06:01:06;;;;;;;17.90;14.50;;;8.20;99.90;;;;;;5066651;28;20871;-78
2023/05/08 06:03:33;;;;;;;16.73;13.20;;;8.20;99.90;;;;;;5058674;28;20456;-78
2023/05/08 06:06:00;;;;;;;16.00;12.93;;;8.20;99.90;;;;;;5063670;28;20923;-78
2023/05/08 06:08:28;;;;;;;16.67;13.13;;;8.30;99.90;;;;;;5062803;28;20455;-79
2023/05/08 06:10:55;;;;;;;16.37;12.37;;;8.30;99.90;;;;;;5053682;28;20449;-78
2023/05/08 06:13:24;;;;;;;15.43;12.07;;;8.50;99.90;;;;;;5053785;28;20493;-80
2023/05/08 06:15:51;;;;;;;16.37;11.33;;;8.50;99.90;;;;;;5064750;28;20468;-82
2023/05/08 06:18:18;;;;;;;19.70;14.23;;;8.50;99.90;;;;;;5062940;28;20444;-84
2023/05/08 06:20:45;;;;;;;15.80;11.20;;;8.40;99.90;;;;;;5063677;28;20448;-77
2023/05/08 06:23:12;;;;;;;17.97;12.00;;;8.40;99.90;;;;;;5063454;28;20881;-78
2023/05/08 06:25:39;;;;;;;15.00;11.57;;;8.50;99.90;;;;;;5057387;28;20460;-78
2023/05/08 06:28:07;;;;;;;14.43;10.40;;;8.50;99.90;;;;;;5064444;28;20922;-78
2023/05/08 06:30:35;;;;;;;13.57;10.73;;;8.50;99.90;;;;;;5072915;28;20437;-78
2023/05/08 06:33:02;;;;;;;13.73;10.83;;;8.40;99.90;;;;;;5077068;28;20518;-78
2023/05/08 06:35:29;;;;;;;13.50;10.90;;;8.60;99.90;;;;;;5072423;28;20443;-78
2023/05/08 06:37:56;;;;;;;13.50;11.43;;;8.60;99.90;;;;;;5075113;28;20499;-80
2023/05/08 06:40:23;;;;;;;13.87;11.47;;;8.70;99.90;;;;;;5064792;28;20464;-83
2023/05/08 06:42:50;;;;;;;14.10;11.87;;;8.70;99.90;;;;;;5064236;28;20513;-78
2023/05/08 06:45:17;;;;;;;14.87;11.07;;;8.60;99.90;;;;;;5066456;28;20451;-79
2023/05/08 06:47:46;;;;;;;14.83;10.37;;;8.70;99.90;;;;;;5068507;28;20847;-79
2023/05/08 06:50:13;;;;;;;12.27;11.00;;;8.80;99.90;;;;;;5061246;28;20468;-78
2023/05/08 06:52:41;;;;;;;15.10;12.13;;;8.80;99.90;;;;;;5063232;28;20483;-79
2023/05/08 06:55:08;;;;;;;17.37;12.00;;;8.90;99.90;;;;;;5056467;28;20528;-80
2023/05/08 06:57:36;;;;;;;12.57;10.93;;;8.70;99.90;;;;;;5063630;28;20486;-79
2023/05/08 07:00:03;;;;;;;12.63;10.27;;;8.70;99.90;;;;;;5052919;28;20471;-79
2023/05/08 07:02:30;;;;;;;16.07;12.30;;;8.70;99.90;;;;;;5068148;28;20980;-78
2023/05/08 07:04:59;;;;;;;14.33;10.87;;;8.80;99.90;;;;;;5069095;28;20547;-83
2023/05/08 07:07:26;;;;;;;13.87;11.50;;;8.90;99.90;;;;;;5068267;28;20456;-80
2023/05/08 07:09:53;;;;;;;11.60;10.33;;;8.90;99.90;;;;;;5064306;28;20530;-79
2023/05/08 07:12:20;;;;;;;11.70;10.27;;;9.00;99.90;;;;;;5065402;28;21297;-81
2023/05/08 07:14:47;;;;;;;11.97;10.17;;;9.20;99.90;;;;;;5066857;28;20451;-78
2023/05/08 07:17:14;;;;;;;11.93;9.63;;;9.20;99.90;;;;;;5063100;28;20460;-78
2023/05/08 07:19:41;;;;;;;10.60;9.50;;;9.10;99.90;;;;;;5059577;28;20497;-79
2023/05/08 07:22:09;;;;;;;9.00;7.43;;;9.10;99.90;;;;;;5065811;28;20466;-83
2023/05/08 07:24:36;;;;;;;10.83;9.20;;;9.10;99.90;;;;;;5051994;28;20531;-79
2023/05/08 07:27:03;;;;;;;14.23;9.57;;;9.00;99.90;;;;;;5064154;28;20459;-79
2023/05/08 07:29:30;;;;;;;11.37;10.17;;;9.40;99.90;;;;;;5060057;28;20464;-79
2023/05/08 07:31:57;;;;;;;11.70;10.10;;;9.60;99.90;;;;;;5060863;28;20510;-77
2023/05/08 07:34:24;;;;;;;11.07;9.20;;;9.40;99.90;;;;;;5064677;28;20603;-78
2023/05/08 07:36:51;;;;;;;12.50;9.33;;;9.40;99.90;;;;;;5053563;28;20888;-81
2023/05/08 07:39:20;;;;;;;11.53;9.23;;;9.40;99.90;;;;;;5060623;28;20460;-78
2023/05/08 07:41:46;;;;;;;10.80;8.37;;;9.40;99.90;;;;;;5060689;28;20521;-80
2023/05/08 07:44:13;;;;;;;11.73;9.10;;;9.30;99.90;;;;;;5067005;28;20452;-81
2023/05/08 07:46:40;;;;;;;13.10;9.53;;;9.30;99.90;;;;;;5056044;28;20429;-79
2023/05/08 07:49:07;;;;;;;9.70;8.70;;;9.40;99.90;;;;;;5060220;28;21100;-78
2023/05/08 07:51:34;;;;;;;11.30;8.97;;;9.40;99.90;;;;;;5067019;28;20542;-81
2023/05/08 07:54:01;;;;;;;10.13;8.23;;;9.60;99.90;;;;;;5053179;28;20480;-79
2023/05/08 07:56:30;;;;;;;11.70;9.17;;;9.90;99.90;;;;;;5061346;28;20508;-78
2023/05/08 07:58:57;;;;;;;9.03;7.70;;;9.80;99.90;;;;;;5067170;28;20513;-78
2023/05/08 08:01:24;;;;;;;13.77;10.77;;;9.50;99.90;;;;;;5060024;28;20456;-79
2023/05/08 08:03:53;;;;;;;13.50;9.70;;;9.70;99.90;;;;;;5056142;28;20534;-83
2023/05/08 08:06:19;;;;;;;10.80;9.23;;;9.60;99.90;;;;;;5055520;28;20444;-82
2023/05/08 08:08:46;;;;;;;11.47;8.87;;;9.50;99.90;;;;;;5065004;28;20456;-83
2023/05/08 08:11:13;;;;;;;10.40;9.30;;;9.50;99.90;;;;;;5066254;28;20440;-81
2023/05/08 08:13:42;;;;;;;11.50;8.97;;;9.50;99.90;;;;;;5066530;28;20484;-79
2023/05/08 08:16:09;;;;;;;12.47;10.03;;;9.70;99.90;;;;;;5059908;28;20462;-79
2023/05/08 08:18:36;;;;;;;11.80;10.10;;;9.80;99.90;;;;;;5055377;28;21544;-81
2023/05/08 08:21:06;;;;;;;12.10;10.90;;;10.00;99.90;;;;;;5055131;28;20866;-78
2023/05/08 08:23:33;;;;;;;8.63;7.27;;;10.10;99.90;;;;;;5052803;28;21031;-80
2023/05/08 08:26:00;;;;;;;11.00;9.90;;;10.00;99.90;;;;;;5055424;28;20448;-78
2023/05/08 08:28:27;;;;;;;10.40;9.30;;;10.10;99.90;;;;;;5059776;28;20452;-80
2023/05/08 08:30:55;;;;;;;13.07;9.47;;;10.50;99.90;;;;;;5061610;28;20457;-79
2023/05/08 08:33:23;;;;;;;11.47;9.90;;;10.60;99.90;;;;;;5064992;28;20487;-76
2023/05/08 08:35:50;;;;;;;10.93;9.83;;;10.40;99.90;;;;;;5064600;28;20441;-80
2023/05/08 08:38:17;;;;;;;12.50;9.07;;;10.20;99.90;;;;;;5061014;28;20522;-79
2023/05/08 08:40:44;;;;;;;10.47;8.90;;;10.20;99.90;;;;;;5055865;28;20465;-78
2023/05/08 08:43:11;;;;;;;9.70;8.67;;;10.50;99.90;;;;;;5055810;28;20448;-79
2023/05/08 08:45:38;;;;;;;9.57;8.67;;;10.60;99.90;;;;;;5061532;28;20460;-78
2023/05/08 08:48:11;;;;;;;14.40;9.80;;;10.50;99.90;;;;;;5050870;28;20534;-80
2023/05/08 08:50:42;;;;;;;11.00;8.60;;;10.50;99.90;;;;;;5058057;28;20464;-82
2023/05/08 08:53:16;;;;;;;9.10;8.20;;;10.50;99.90;;;;;;5063812;28;21207;-78
2023/05/08 08:55:48;;;;;;;9.97;8.97;;;10.50;99.90;;;;;;5056145;28;20448;-78
2023/05/08 08:58:21;;;;;;;9.77;8.67;;;10.70;99.90;;;;;;5063305;28;20456;-81
2023/05/08 09:00:49;;;;;;;11.23;7.90;;;10.90;99.90;;;;;;5060740;28;20456;-77
2023/05/08 09:03:18;;;;;;;8.77;7.87;;;11.20;99.90;;;;;;5058882;28;20514;-78
2023/05/08 09:05:48;;;;;;;13.33;8.70;;;11.40;99.90;;;;;;5047938;28;20450;-76
2023/05/08 09:08:15;;;;;;;8.77;7.97;;;11.90;99.90;;;;;;5053441;28;20436;-76
2023/05/08 09:10:42;;;;;;;8.33;6.70;;;11.90;99.90;;;;;;5051371;28;20480;-75
2023/05/08 09:13:09;;;;;;;8.90;7.70;;;11.90;99.10;;;;;;5060766;28;20549;-76
2023/05/08 09:15:36;;;;;;;8.63;7.77;;;12.00;98.70;;;;;;5050765;28;20928;-77
2023/05/08 09:18:03;;;;;;;8.60;7.80;;;12.00;99.90;;;;;;5054545;28;20903;-75
2023/05/08 09:20:31;;;;;;;10.00;8.13;;;12.40;98.40;;;;;;5063532;28;20495;-79
2023/05/08 09:23:00;;;;;;;9.37;8.47;;;12.50;99.90;;;;;;5059389;28;20522;-81
2023/05/08 09:25:41;;;;;;;9.83;8.67;;;12.90;98.40;;;;;;5057233;28;20836;-78
2023/05/08 09:28:18;;;;;;;9.40;8.27;;;12.90;97.60;;;;;;5055852;28;20437;-76
2023/05/08 09:30:55;;;;;;;8.87;8.03;;;13.00;96.90;;;;;;5060402;28;20549;-76
2023/05/08 09:33:24;;;;;;;8.97;8.10;;;12.50;99.20;;;;;;5064469;28;20475;-75
2023/05/08 09:35:52;;;;;;;8.90;8.10;;;12.80;98.60;;;;;;5064129;28;20920;-76
2023/05/08 09:38:36;;;;;;;10.60;9.17;;;12.50;99.20;;;;;;5053671;28;20865;-78
2023/05/08 09:41:08;;;;;;;9.67;8.73;;;12.30;98.30;;;;;;5059062;28;20518;-79
2023/05/08 09:43:35;;;;;;;10.83;9.73;;;12.20;98.00;;;;;;5076172;28;20496;-75
2023/05/08 09:46:21;;;;;;;9.73;8.10;;;12.10;99.00;;;;;;5072754;28;20786;-75
2023/05/08 09:48:48;;;;;;;7.43;6.73;;;12.70;99.10;;;;;;5058100;28;20491;-74
2023/05/08 09:51:16;;;;;;;10.17;9.27;;;13.30;99.70;;;;;;5061645;28;20464;-82
2023/05/08 09:53:43;;;;;;;9.43;8.63;;;13.50;98.00;;;;;;5065397;28;20512;-76
2023/05/08 09:56:11;;;;;;;9.13;8.33;;;13.80;98.60;;;;;;5065429;28;20823;-80
2023/05/08 09:58:39;;;;;;;9.37;8.03;;;13.60;96.10;;;;;;5062069;28;20440;-76
2023/05/08 10:01:06;;;;;;;8.43;7.73;;;13.30;96.40;;;;;;5065464;28;20488;-82
2023/05/08 10:03:49;;;;;;;8.27;7.47;;;13.10;97.90;;;;;;5064002;28;20460;-76
2023/05/08 10:06:18;;;;;;;9.23;8.43;;;12.40;96.70;;;;;;5060145;28;20933;-76
2023/05/08 10:08:47;;;;;;;8.30;7.57;;;12.70;98.20;;;;;;5062785;28;20503;-77
2023/05/08 10:11:15;;;;;;;9.80;8.30;;;12.90;97.30;;;;;;5054708;28;20436;-81
2023/05/08 10:13:43;;;;;;;9.60;8.80;;;13.30;98.30;;;;;;5055519;28;20564;-76
2023/05/08 10:16:15;;;;;;;7.90;7.10;;;14.00;97.00;;;;;;5058808;28;20488;-75
2023/05/08 10:18:47;;;;;;;8.03;6.93;;;14.30;96.90;;;;;;5060766;28;20809;-76
2023/05/08 10:21:14;;;;;;;9.07;8.20;;;14.50;96.90;;;;;;5060581;28;20457;-77
2023/05/08 10:23:46;;;;;;;8.97;8.07;;;14.60;96.70;;;;;;5065948;28;20464;-77
2023/05/08 10:26:16;;;;;;;8.93;8.03;;;14.50;94.80;;;;;;5054924;28;20486;-81
2023/05/08 10:28:54;;;;;;;8.87;8.00;;;14.40;94.70;;;;;;5065643;28;20530;-76
2023/05/08 10:31:24;;;;;;;9.97;9.00;;;14.50;95.20;;;;;;5063097;28;20467;-76
2023/05/08 10:33:54;;;;;;;8.53;7.80;;;14.20;97.70;;;;;;5065485;28;20490;-78
2023/05/08 10:36:22;;;;;;;9.50;8.70;;;14.30;95.70;;;;;;5064820;28;20521;-79
2023/05/08 10:38:51;;;;;;;9.80;8.90;;;14.00;95.30;;;;;;5068169;28;20468;-78
2023/05/08 10:41:19;;;;;;;8.63;7.73;;;13.80;95.70;;;;;;5069044;28;20460;-77
2023/05/08 10:43:48;;;;;;;8.47;7.67;;;13.00;95.40;;;;;;5061434;28;20519;-76
2023/05/08 10:46:22;;;;;;;9.83;8.83;;;12.80;95.50;;;;;;5055299;28;21241;-78
2023/05/08 10:48:56;;;;;;;10.63;9.00;;;13.00;96.70;;;;;;5062972;28;20573;-78
2023/05/08 10:51:35;;;;;;;10.17;9.10;;;13.30;96.90;;;;;;5057811;28;20465;-81
2023/05/08 10:54:09;;;;;;;10.60;9.53;;;13.70;96.50;;;;;;5064738;28;20920;-76
2023/05/08 10:56:38;;;;;;;11.63;10.37;;;14.00;97.00;;;;;;5064984;28;20441;-79
2023/05/08 10:59:06;;;;;;;9.60;8.70;;;14.60;96.10;;;;;;5067534;28;20461;-77
2023/05/08 11:01:33;;;;;;;12.20;8.30;;;15.10;96.10;;;;;;5079489;28;21092;-77
2023/05/08 11:04:00;;;;;;;10.30;9.30;;;15.00;94.50;;;;;;5071455;28;20967;-77
2023/05/08 11:06:45;;;;;;;9.80;8.87;;;14.80;95.70;;;;;;5071180;28;20483;-78
2023/05/08 11:09:21;;;;;;;9.83;8.87;;;14.70;96.30;;;;;;5062935;28;20452;-79
2023/05/08 11:11:59;;;;;;;9.90;8.90;;;15.10;94.50;;;;;;5064076;28;20513;-79
2023/05/08 11:14:28;;;;;;;9.40;8.53;;;15.20;93.00;;;;;;5063498;28;20878;-80
2023/05/08 11:17:08;;;;;;;10.10;9.10;;;15.40;94.90;;;;;;5064778;28;20526;-80
2023/05/08 11:19:37;;;;;;;10.10;9.20;;;15.20;95.30;;;;;;5061015;28;20526;-80
2023/05/08 11:22:31;;;;;;;8.93;8.03;;;15.50;95.90;;;;;;5063312;28;21068;-77
2023/05/08 11:25:10;;;;;;;9.87;8.97;;;15.70;94.60;;;;;;5061451;28;20487;-77
2023/05/08 11:28:05;;;;;;;11.17;8.67;;;16.00;92.80;;;;;;5065669;28;20456;-76
2023/05/08 11:30:37;;;;;;;8.47;7.77;;;16.50;92.10;;;;;;5065953;28;20466;-80
2023/05/08 11:33:19;;;;;;;10.00;9.00;;;16.30;94.30;;;;;;5063084;28;20460;-77
2023/05/08 11:35:55;;;;;;;8.63;7.77;;;16.60;91.90;;;;;;5056976;28;20476;-78
2023/05/08 11:38:28;;;;;;;8.80;7.87;;;16.30;94.40;;;;;;5053803;28;21378;-80
2023/05/08 11:40:58;;;;;;;8.80;8.00;;;16.80;92.30;;;;;;5061708;28;20475;-81
2023/05/08 11:43:27;;;;;;;9.23;8.23;;;16.90;90.70;;;;;;5066239;28;20530;-80
2023/05/08 11:45:54;;;;;;;10.10;9.20;;;17.20;88.50;;;;;;5063610;28;20465;-78
2023/05/08 11:48:21;;;;;;;10.43;9.07;;;17.10;90.40;;;;;;5052434;28;20509;-75
2023/05/08 11:50:50;;;;;;;9.20;8.33;;;16.50;90.60;;;;;;5060786;28;20460;-78
2023/05/08 11:53:17;;;;;;;9.30;8.50;;;15.90;90.90;;;;;;5071735;28;20521;-79
2023/05/08 11:55:48;;;;;;;8.70;7.90;;;16.50;92.00;;;;;;5059977;28;20473;-80
2023/05/08 11:58:17;;;;;;;9.30;8.27;;;16.70;90.20;;;;;;5062782;28;20737;-79
2023/05/08 12:00:45;;;;;;;10.50;9.60;;;16.70;90.00;;;;;;5065186;28;21309;-79
2023/05/08 12:03:13;;;;;;;9.77;8.83;;;16.20;90.00;;;;;;5058603;28;20472;-79
2023/05/08 12:05:40;;;;;;;11.40;10.07;;;15.80;90.30;;;;;;5064795;28;20539;-81
2023/05/08 12:08:07;;;;;;;10.10;9.10;;;16.00;92.40;;;;;;5066404;28;20551;-80
2023/05/08 12:10:40;;;;;;;12.33;7.90;;;15.80;91.00;;;;;;5055025;28;20445;-82
2023/05/08 12:13:18;;;;;;;9.10;8.40;;;15.60;90.70;;;;;;5059672;28;20470;-79
2023/05/08 12:15:46;;;;;;;9.63;8.77;;;15.90;90.00;;;;;;5061558;28;20487;-77
2023/05/08 12:18:13;;;;;;;8.73;8.00;;;15.90;89.70;;;;;;5056617;28;20450;-78
2023/05/08 12:20:40;;;;;;;9.30;8.50;;;16.20;88.10;;;;;;5066010;28;20463;-78
2023/05/08 12:23:08;;;;;;;9.37;8.57;;;16.40;88.70;;;;;;5064623;28;20468;-81
2023/05/08 12:25:37;;;;;;;9.00;8.20;;;16.20;90.40;;;;;;5060513;28;20539;-79
2023/05/08 12:28:04;;;;;;;11.53;8.93;;;16.20;90.60;;;;;;5057928;28;20531;-80
2023/05/08 12:30:33;;;;;;;10.20;9.20;;;16.30;89.20;;;;;;5060701;28;20440;-81
2023/05/08 12:33:00;;;;;;;8.87;8.07;;;16.80;85.80;;;;;;5068337;28;21135;-76
2023/05/08 12:35:28;;;;;;;11.00;10.10;;;17.20;89.30;;;;;;5066581;28;21355;-76
2023/05/08 12:37:55;;;;;;;10.50;8.10;;;17.70;84.40;;;;;;5055419;28;20462;-77
2023/05/08 12:40:27;;;;;;;9.70;8.80;;;17.70;85.80;;;;;;5063915;28;20483;-80
2023/05/08 12:42:54;;;;;;;8.63;7.13;;;17.10;83.30;;;;;;5059277;28;20461;-77
2023/05/08 12:45:22;;;;;;;8.27;7.47;;;16.70;82.20;;;;;;5062305;28;20518;-76
2023/05/08 12:47:52;;;;;;;7.80;7.00;;;16.70;86.10;;;;;;5060451;28;20495;-76
2023/05/08 12:50:21;;;;;;;14.07;10.20;;;17.00;80.90;;;;;;5068138;28;20466;-76
2023/05/08 12:52:48;;;;;;;8.77;7.87;;;16.50;85.40;;;;;;5068671;28;20465;-78